Flight Track Log - Related Links

Times and Time Zones

All times are in EDT time to prevent confusion due to time zone crossing. See the ASA744 flight status page for this flight to view local times or setup timezone preferences in your user account.

Time Position Orientation Groundspeed Altitude Reporting Facility
EDT Latitude Longitude Course Direction KTS MPH feet Rate Location/Type
Mon 01:15:52 AM 47.4239 -122.3100 178° South 172 198 1,400  Level Seattle Center
Mon 01:16:18 AM 47.4044 -122.3089 178° South 184 212 2,000 1,655 Climbing Seattle Center
Mon 01:17:19 AM 47.3419 -122.3097 181° South 224 258 3,800 2,132 Climbing Seattle Center
Mon 01:18:19 AM 47.3064 -122.2233 121° Southeast 273 314 6,300 2,033 Climbing Seattle Center
Mon 01:19:20 AM 47.3339 -122.1147 69° East 285 328 7,900 1,339 Climbing Seattle Center
Mon 01:20:20 AM 47.3611 -122.0019 70° East 292 336 9,000 1,339 Climbing Seattle Center
Mon 01:21:21 AM 47.3911 -121.8808 70° East 313 360 10,600 1,672 Climbing Seattle Center
Mon 01:22:22 AM 47.4242 -121.7419 71° East 358 412 12,400 1,983 Climbing Seattle Center
Mon 01:23:22 AM 47.4292 -121.5864 87° East 382 440 14,600 2,430 Climbing Seattle Center
Mon 01:24:23 AM 47.4261 -121.4097 91° East 397 457 17,300 2,132 Climbing Seattle Center
Mon 01:25:23 AM 47.4211 -121.2594 93° East 413 475 18,900 1,736 Climbing Seattle Center
Mon 01:26:24 AM 47.4003 -121.0928 100° East 419 482 20,800 1,785 Climbing Seattle Center
Mon 01:27:24 AM 47.3717 -120.9233 104° East 428 493 22,500 1,636 Climbing Seattle Center
Mon 01:28:25 AM 47.3450 -120.7397 102° East 436 502 24,100 1,587 Climbing Seattle Center
Mon 01:29:25 AM 47.3153 -120.5597 104° East 453 521 25,700 1,339 Climbing Seattle Center
Mon 01:30:26 AM 47.2867 -120.3778 103° East 458 527 26,800 1,190 Climbing Seattle Center
Mon 01:31:26 AM 47.2556 -120.1906 104° East 471 542 28,100 1,289 Climbing Seattle Center
Mon 01:32:27 AM 47.2244 -119.9981 103° East 484 557 29,400 1,140 Climbing Seattle Center
Mon 01:33:27 AM 47.1922 -119.8025 104° East 494 568 30,400 1,091 Climbing Seattle Center
Mon 01:34:28 AM 47.1594 -119.6053 104° East 499 574 31,600 1,279 Climbing Seattle Center
Mon 01:35:29 AM 47.1250 -119.4083 104° East 500 575 33,000 1,289 Climbing Seattle Center
Mon 01:36:29 AM 47.0911 -119.2150 104° East 494 568 34,200 992 Climbing Seattle Center
Mon 01:37:30 AM 47.0581 -119.0228 104° East 489 563 35,000 397 Climbing Seattle Center
Mon 01:38:30 AM 47.0167 -118.7942 105° East 487 560 35,000  Level Seattle Center
Mon 01:39:31 AM 46.9839 -118.6022 104° East 487 560 35,000  Level Seattle Center
Mon 01:40:31 AM 46.9508 -118.4117 104° East 487 560 35,000  Level Seattle Center
Mon 01:41:32 AM 46.9161 -118.2219 105° East 486 559 35,000  Level Seattle Center
Mon 01:42:32 AM 46.8814 -118.0297 105° East 491 565 35,000  Level Seattle Center
Mon 01:43:33 AM 46.8456 -117.8386 105° East 491 565 35,000  Level Seattle Center
Mon 01:44:33 AM 46.8089 -117.6461 105° East 494 568 35,000  Level Seattle Center
Mon 01:45:34 AM 46.7725 -117.4569 106° East 494 568 35,000  Level Seattle Center
Mon 01:46:34 AM 46.7364 -117.2672 105° East 491 565 35,000  Level Seattle Center
Mon 01:47:34 AM 46.6997 -117.0789 106° East 489 563 35,000  Level Seattle Center
Mon 01:48:35 AM 46.6625 -116.8906 106° East 489 563 35,000  Level Seattle Center
Mon 01:49:35 AM 46.6253 -116.6992 106° East 492 566 35,000  Level Seattle Center
Mon 01:50:36 AM 46.5886 -116.5128 106° East 486 559 35,000  Level Seattle Center
Mon 01:51:36 AM 46.5506 -116.3233 106° East 489 563 35,000  Level Seattle Center
Mon 01:52:37 AM 46.5122 -116.1350 106° East 489 563 35,000  Level Seattle Center
Mon 01:53:37 AM 46.4733 -115.9450 106° East 493 567 35,000  Level Seattle Center
Mon 01:54:38 AM 46.4347 -115.7572 107° East 489 563 35,000  Level Seattle Center
Mon 01:55:38 AM 46.3961 -115.5722 107° East 485 558 35,000  Level Seattle Center
Mon 01:56:39 AM 46.3481 -115.3489 107° East 486 559 35,000  Level Seattle Center
Mon 01:57:05 AM 46.3325 -115.2756 107° East 486 559 35,000  Level Salt Lake Center
Mon 01:58:06 AM 46.2936 -115.0900 107° East 482 555 35,000  Level Salt Lake Center
Mon 01:59:06 AM 46.2544 -114.9089 107° East 477 549 35,000  Level Salt Lake Center
Mon 02:00:07 AM 46.2136 -114.7228 108° East 484 557 35,000  Level Salt Lake Center
Mon 02:01:08 AM 46.1742 -114.5392 107° East 481 554 35,000  Level Salt Lake Center
Mon 02:02:08 AM 46.1328 -114.3550 108° East 484 557 35,000  Level Salt Lake Center
Mon 02:03:09 AM 46.0922 -114.1753 108° East 477 549 35,000  Level Salt Lake Center
Mon 02:04:09 AM 46.0514 -113.9917 108° East 482 555 35,000  Level Salt Lake Center
Mon 02:05:10 AM 46.0097 -113.8111 108° East 479 551 35,000  Level Salt Lake Center
Mon 02:06:10 AM 45.9614 -113.6039 108° East 483 556 35,000  Level Salt Lake Center
Mon 02:07:11 AM 45.9189 -113.4206 108° East 485 558 35,000  Level Salt Lake Center
Mon 02:08:11 AM 45.8769 -113.2389 108° East 482 555 35,000  Level Salt Lake Center
Mon 02:09:12 AM 45.8344 -113.0575 109° East 481 554 35,000 50 Level Salt Lake Center
Mon 02:10:12 AM 45.7903 -112.8764 109° East 482 555 35,100 545 Climbing Salt Lake Center
Mon 02:11:13 AM 45.7475 -112.6928 108° East 485 558 36,100 744 Climbing Salt Lake Center
Mon 02:12:13 AM 45.7031 -112.5122 109° East 484 557 36,600 446 Climbing Salt Lake Center
Mon 02:13:14 AM 45.6597 -112.3306 109° East 484 557 37,000 198 Climbing Salt Lake Center
Mon 02:14:14 AM 45.6164 -112.1519 109° East 480 552 37,000  Level Salt Lake Center
Mon 02:15:15 AM 45.5722 -111.9744 110° East 476 548 37,000  Level Salt Lake Center
Mon 02:16:15 AM 45.5278 -111.7969 110° East 477 549 37,000  Level Salt Lake Center
Mon 02:17:16 AM 45.4847 -111.6222 109° East 474 545 37,000  Level Salt Lake Center
Mon 02:18:16 AM 45.4411 -111.4500 110° East 469 540 37,000  Level Salt Lake Center
Mon 02:19:17 AM 45.3961 -111.2772 110° East 470 541 37,000  Level Salt Lake Center
Mon 02:20:18 AM 45.3522 -111.1036 110° East 471 542 37,000  Level Salt Lake Center
Mon 02:21:18 AM 45.2994 -110.8956 110° East 470 541 37,000  Level Salt Lake Center
Mon 02:22:19 AM 45.2542 -110.7217 110° East 471 542 37,000  Level Salt Lake Center
Mon 02:23:19 AM 45.2128 -110.5667 111° Southeast 474 545 37,000  Level Salt Lake Center
Mon 02:24:20 AM 45.1617 -110.3725 110° East 471 542 37,000  Level Salt Lake Center
Mon 02:25:20 AM 45.1181 -110.2081 111° Southeast 468 539 37,000  Level Salt Lake Center
Mon 02:26:21 AM 45.0725 -110.0397 111° Southeast 467 537 37,000  Level Salt Lake Center
Mon 02:27:21 AM 45.0283 -109.8750 111° Southeast 466 536 37,000  Level Salt Lake Center
Mon 02:28:22 AM 44.9764 -109.6858 111° Southeast 471 542 37,000  Level Salt Lake Center
Mon 02:29:22 AM 44.9319 -109.5203 111° Southeast 470 541 37,000  Level Salt Lake Center
Mon 02:30:23 AM 44.8786 -109.3264 111° Southeast 475 547 37,000  Level Salt Lake Center
Mon 02:31:23 AM 44.8317 -109.1606 112° Southeast 475 547 37,000  Level Salt Lake Center
Mon 02:32:24 AM 44.7856 -108.9969 112° Southeast 473 544 37,000  Level Salt Lake Center
Mon 02:33:24 AM 44.7386 -108.8319 112° Southeast 473 544 37,000  Level Salt Lake Center
Mon 02:34:24 AM 44.6844 -108.6411 112° Southeast 471 542 37,000  Level Salt Lake Center
Mon 02:35:25 AM 44.6375 -108.4789 112° Southeast 471 542 37,000  Level Salt Lake Center
Mon 02:36:25 AM 44.5906 -108.3172 112° Southeast 471 542 37,000  Level Salt Lake Center
Mon 02:37:26 AM 44.5356 -108.1281 112° Southeast 473 544 37,000  Level Salt Lake Center
Mon 02:38:26 AM 44.4883 -107.9669 112° Southeast 473 544 37,000  Level Salt Lake Center
Mon 02:39:27 AM 44.4331 -107.7786 112° Southeast 472 543 37,000  Level Salt Lake Center
Mon 02:40:27 AM 44.3847 -107.6186 113° Southeast 470 541 37,000  Level Salt Lake Center
Mon 02:41:28 AM 44.3356 -107.4600 113° Southeast 468 539 37,000  Level Salt Lake Center
Mon 02:42:28 AM 44.2781 -107.2756 113° Southeast 466 536 37,000  Level Salt Lake Center
Mon 02:43:29 AM 44.2311 -107.1178 113° Southeast 464 534 37,000  Level Salt Lake Center
Mon 02:44:30 AM 44.1814 -106.9572 113° Southeast 471 542 37,000  Level Salt Lake Center
Mon 02:45:30 AM 44.1231 -106.7714 114° Southeast 473 544 37,000  Level Salt Lake Center
Mon 02:46:04 AM 44.1003 -106.6875 111° Southeast 471 542 37,000  Level Denver Center
Mon 02:47:04 AM 44.0506 -106.5283 113° Southeast 471 542 37,000  Level Denver Center
Mon 02:48:05 AM 43.9928 -106.3422 113° Southeast 470 541 37,000  Level Denver Center
Mon 02:49:05 AM 43.9419 -106.1856 114° Southeast 467 537 37,000  Level Denver Center
Mon 02:50:06 AM 43.8925 -106.0269 113° Southeast 467 537 37,000  Level Denver Center
Mon 02:51:06 AM 43.8425 -105.8708 114° Southeast 464 534 37,000  Level Denver Center
Mon 02:52:06 AM 43.7825 -105.6869 114° Southeast 467 537 37,000  Level Denver Center
Mon 02:53:07 AM 43.7317 -105.5297 114° Southeast 468 539 37,000  Level Denver Center
Mon 02:54:07 AM 43.6792 -105.3736 115° Southeast 468 539 37,000  Level Denver Center
Mon 02:55:07 AM 43.6203 -105.1906 114° Southeast 466 536 37,000  Level Denver Center
Mon 02:56:08 AM 43.5683 -105.0344 115° Southeast 466 536 37,000  Level Denver Center
Mon 02:57:08 AM 43.5158 -104.8775 115° Southeast 469 540 37,000  Level Denver Center
Mon 02:58:08 AM 43.4642 -104.7222 115° Southeast 467 537 37,000  Level Denver Center
Mon 02:59:09 AM 43.4017 -104.5389 115° Southeast 472 543 37,000  Level Denver Center
Mon 03:00:09 AM 43.3489 -104.3814 115° Southeast 472 543 37,000  Level Denver Center
Mon 03:01:10 AM 43.2947 -104.2256 115° Southeast 472 543 37,000  Level Denver Center
Mon 03:02:10 AM 43.2322 -104.0422 115° Southeast 472 543 37,000  Level Denver Center
Mon 03:03:10 AM 43.1778 -103.8858 115° Southeast 473 544 37,000  Level Denver Center
Mon 03:04:11 AM 43.1233 -103.7294 115° Southeast 473 544 37,000  Level Denver Center
Mon 03:05:11 AM 43.0689 -103.5744 116° Southeast 472 543 37,000  Level Denver Center
Mon 03:06:12 AM 43.0047 -103.3933 116° Southeast 474 545 37,000  Level Denver Center
Mon 03:07:12 AM 42.9494 -103.2392 116° Southeast 471 542 37,000  Level Denver Center
Mon 03:08:13 AM 42.8953 -103.0847 116° Southeast 471 542 37,000  Level Denver Center
Mon 03:09:25 AM 42.8303 -102.9050 116° Southeast 474 545 37,000  Level Denver Center
Mon 03:10:26 AM 42.7642 -102.7253 117° Southeast 477 549 37,000  Level Denver Center
Mon 03:11:26 AM 42.7100 -102.5711 116° Southeast 474 545 37,000  Level Denver Center
Mon 03:12:27 AM 42.6436 -102.3914 117° Southeast 478 550 37,000  Level Denver Center
Mon 03:13:27 AM 42.5872 -102.2375 116° Southeast 476 548 37,000  Level Denver Center
Mon 03:14:28 AM 42.5311 -102.0844 116° Southeast 476 548 37,000  Level Denver Center
Mon 03:15:28 AM 42.4656 -101.9064 116° Southeast 473 544 37,000  Level Denver Center
Mon 03:16:29 AM 42.4056 -101.7489 117° Southeast 474 545 37,000  Level Denver Center
Mon 03:17:29 AM 42.3489 -101.5983 117° Southeast 470 541 37,000  Level Denver Center
Mon 03:18:30 AM 42.2914 -101.4483 117° Southeast 469 540 37,000  Level Denver Center
Mon 03:19:30 AM 42.2242 -101.2736 117° Southeast 469 540 37,000  Level Denver Center
Mon 03:20:31 AM 42.1661 -101.1250 118° Southeast 467 537 37,000  Level Denver Center
Mon 03:21:31 AM 42.1092 -100.9753 117° Southeast 469 540 37,000  Level Denver Center
Mon 03:22:32 AM 42.0500 -100.8272 118° Southeast 469 540 37,000  Level Denver Center
Mon 03:23:32 AM 41.9825 -100.6539 118° Southeast 468 539 37,000  Level Denver Center
Mon 03:24:33 AM 41.9239 -100.5067 118° Southeast 467 537 37,000  Level Denver Center
Mon 03:25:32 AM 41.8675 -100.3658 118° Southeast 468 539 37,000  Level Minneapolis Center
Mon 03:26:32 AM 41.8072 -100.2114 118° Southeast 468 539 37,000  Level Minneapolis Center
Mon 03:27:32 AM 41.7478 -100.0575 117° Southeast 466 536 37,000  Level Minneapolis Center
Mon 03:28:35 AM 41.6792 -99.8928 119° Southeast 466 536 37,000  Level Denver Center
Mon 03:29:35 AM 41.6211 -99.7486 118° Southeast 462 532 37,000  Level Denver Center
Mon 03:30:36 AM 41.5494 -99.5725 118° Southeast 463 533 37,000  Level Denver Center
Mon 03:31:36 AM 41.4875 -99.4208 119° Southeast 465 535 37,000  Level Denver Center
Mon 03:32:37 AM 41.4250 -99.2683 119° Southeast 467 537 37,000  Level Denver Center
Mon 03:33:37 AM 41.3622 -99.1172 119° Southeast 467 537 37,000  Level Denver Center
Mon 03:34:38 AM 41.3036 -98.9739 119° Southeast 466 536 37,000  Level Denver Center
Mon 03:35:34 AM 41.2467 -98.8358 119° Southeast 465 535 37,000  Level Minneapolis Center
Mon 03:36:35 AM 41.1842 -98.6856 119° Southeast 465 535 37,000  Level Minneapolis Center
Mon 03:37:35 AM 41.1175 -98.5344 120° Southeast 469 540 37,000  Level Minneapolis Center
Mon 03:38:35 AM 41.0522 -98.3819 120° Southeast 465 535 37,000  Level Minneapolis Center
Mon 03:39:36 AM 40.9892 -98.2336 119° Southeast 462 532 37,000  Level Minneapolis Center
Mon 03:40:36 AM 40.9253 -98.0856 120° Southeast 463 533 37,000  Level Minneapolis Center
Mon 03:41:36 AM 40.8611 -97.9375 120° Southeast 463 533 37,000  Level Minneapolis Center
Mon 03:42:36 AM 40.7975 -97.7894 120° Southeast 464 534 37,000  Level Minneapolis Center
Mon 03:43:37 AM 40.7331 -97.6403 120° Southeast 466 536 37,000  Level Minneapolis Center
Mon 03:44:37 AM 40.6669 -97.4917 120° Southeast 468 539 37,000  Level Minneapolis Center
Mon 03:45:37 AM 40.6056 -97.3503 120° Southeast 470 541 37,000  Level Minneapolis Center
Mon 03:46:38 AM 40.5411 -97.2025 120° Southeast 469 540 37,000  Level Minneapolis Center
Mon 03:47:38 AM 40.4747 -97.0544 120° Southeast 471 542 37,000  Level Minneapolis Center
Mon 03:48:38 AM 40.4100 -96.9064 120° Southeast 469 540 37,000  Level Minneapolis Center
Mon 03:49:39 AM 40.3436 -96.7589 121° Southeast 471 542 37,000  Level Minneapolis Center
Mon 03:50:39 AM 40.2783 -96.6128 120° Southeast 468 539 37,000  Level Minneapolis Center
Mon 03:51:39 AM 40.2128 -96.4661 120° Southeast 468 539 37,000  Level Minneapolis Center
Mon 03:52:40 AM 40.1461 -96.3214 121° Southeast 468 539 37,000  Level Minneapolis Center
Mon 03:53:40 AM 40.0803 -96.1747 120° Southeast 468 539 37,000  Level Minneapolis Center
Mon 03:54:40 AM 40.0011 -96.0036 121° Southeast 463 533 37,000  Level Minneapolis Center
Mon 03:55:41 AM 39.9467 -95.8542 115° Southeast 461 531 37,000  Level Minneapolis Center
Mon 03:56:41 AM 39.8931 -95.7075 115° Southeast 454 522 37,000  Level Minneapolis Center
Mon 03:57:20 AM 39.8597 -95.6169 116° Southeast 454 522 37,000  Level Kansas City Center
Mon 03:58:20 AM 39.8078 -95.4764 116° Southeast 451 519 37,000  Level Kansas City Center
Mon 03:59:21 AM 39.7544 -95.3358 116° Southeast 451 519 37,000  Level Kansas City Center
Mon 04:00:23 AM 39.6933 -95.1708 116° Southeast 452 520 37,000  Level Kansas City Center
Mon 04:01:24 AM 39.6383 -95.0286 117° Southeast 457 526 37,000  Level Kansas City Center
Mon 04:02:24 AM 39.5856 -94.8875 116° Southeast 452 520 37,000  Level Kansas City Center
Mon 04:03:24 AM 39.5217 -94.7206 116° Southeast 458 527 37,000  Level Kansas City Center
Mon 04:04:24 AM 39.4678 -94.5783 116° Southeast 458 527 37,000  Level Kansas City Center
Mon 04:05:25 AM 39.4125 -94.4358 117° Southeast 461 531 37,000  Level Kansas City Center
Mon 04:06:25 AM 39.3575 -94.2947 117° Southeast 458 527 37,000  Level Kansas City Center
Mon 04:07:25 AM 39.2936 -94.1300 117° Southeast 458 527 37,000  Level Kansas City Center
Mon 04:08:26 AM 39.2381 -93.9897 117° Southeast 458 527 37,000  Level Kansas City Center
Mon 04:09:26 AM 39.1831 -93.8500 117° Southeast 456 525 37,000  Level Kansas City Center
Mon 04:10:26 AM 39.1283 -93.7092 117° Southeast 458 527 37,000  Level Kansas City Center
Mon 04:11:26 AM 39.0633 -93.5461 117° Southeast 460 529 37,000  Level Kansas City Center
Mon 04:12:27 AM 39.0064 -93.4014 117° Southeast 457 526 37,000  Level Kansas City Center
Mon 04:13:27 AM 38.9469 -93.2533 117° Southeast 461 531 37,000  Level Kansas City Center
Mon 04:14:27 AM 38.8869 -93.1075 118° Southeast 462 532 37,000  Level Kansas City Center
Mon 04:15:28 AM 38.8286 -92.9586 117° Southeast 463 533 37,000  Level Kansas City Center
Mon 04:16:28 AM 38.7675 -92.8108 118° Southeast 465 535 37,000  Level Kansas City Center
Mon 04:17:28 AM 38.7069 -92.6625 118° Southeast 466 536 37,000  Level Kansas City Center
Mon 04:18:28 AM 38.6453 -92.5125 118° Southeast 470 541 37,000  Level Kansas City Center
Mon 04:19:29 AM 38.5839 -92.3633 118° Southeast 471 542 37,000  Level Kansas City Center
Mon 04:20:29 AM 38.5219 -92.2150 118° Southeast 469 540 37,000  Level Kansas City Center
Mon 04:21:29 AM 38.4611 -92.0661 118° Southeast 469 540 37,000  Level Kansas City Center
Mon 04:22:30 AM 38.3992 -91.9186 118° Southeast 467 537 37,000  Level Kansas City Center
Mon 04:23:30 AM 38.3358 -91.7700 118° Southeast 471 542 37,000  Level Kansas City Center
Mon 04:24:30 AM 38.2736 -91.6208 118° Southeast 472 543 37,000  Level Kansas City Center
Mon 04:25:31 AM 38.2100 -91.4714 118° Southeast 475 547 37,000  Level Kansas City Center
Mon 04:26:31 AM 38.1586 -91.3539 119° Southeast 474 545 37,000  Level Kansas City Center
Mon 04:27:31 AM 38.0958 -91.2044 118° Southeast 475 547 37,000  Level Kansas City Center
Mon 04:28:32 AM 38.0317 -91.0544 118° Southeast 475 547 37,000  Level Kansas City Center
Mon 04:29:32 AM 37.9656 -90.9050 119° Southeast 481 554 37,000  Level Kansas City Center
Mon 04:30:32 AM 37.9003 -90.7536 119° Southeast 487 560 37,000  Level Kansas City Center
Mon 04:31:33 AM 37.8350 -90.6042 119° Southeast 489 563 37,000  Level Kansas City Center
Mon 04:32:33 AM 37.7700 -90.4561 119° Southeast 488 562 37,000  Level Kansas City Center
Mon 04:33:33 AM 37.6906 -90.2764 119° Southeast 489 563 37,000  Level Kansas City Center
Mon 04:34:34 AM 37.6269 -90.1247 118° Southeast 491 565 37,000  Level Kansas City Center
Mon 04:35:34 AM 37.5667 -89.9744 117° Southeast 481 554 37,000  Level Kansas City Center
Mon 04:36:34 AM 37.5053 -89.8247 117° Southeast 481 554 37,000  Level Kansas City Center
Mon 04:37:35 AM 37.4431 -89.6753 118° Southeast 481 554 37,000  Level Kansas City Center
Mon 04:38:35 AM 37.3817 -89.5253 117° Southeast 481 554 37,000  Level Kansas City Center
Mon 04:39:32 AM 37.3283 -89.4047 119° Southeast 478 550 37,000  Level Memphis Center
Mon 04:40:32 AM 37.2644 -89.2544 118° Southeast 473 544 37,000  Level Memphis Center
Mon 04:41:32 AM 37.2025 -89.1042 117° Southeast 473 544 37,000  Level Memphis Center
Mon 04:42:32 AM 37.1383 -88.9492 117° Southeast 478 550 37,000  Level Memphis Center
Mon 04:43:32 AM 37.0742 -88.7994 118° Southeast 478 550 37,000  Level Memphis Center
Mon 04:44:32 AM 37.0097 -88.6475 118° Southeast 483 556 37,000  Level Memphis Center
Mon 04:45:32 AM 36.9472 -88.5008 118° Southeast 488 562 37,000  Level Memphis Center
Mon 04:46:32 AM 36.8800 -88.3469 119° Southeast 493 567 37,000  Level Memphis Center
Mon 04:47:32 AM 36.8128 -88.1906 118° Southeast 493 567 37,000  Level Memphis Center
Mon 04:48:32 AM 36.7369 -88.0267 120° Southeast 501 577 37,000  Level Memphis Center
Mon 04:49:32 AM 36.6694 -87.8736 119° Southeast 495 570 37,000  Level Memphis Center
Mon 04:50:32 AM 36.6039 -87.7231 118° Southeast 495 570 37,000  Level Memphis Center
Mon 04:51:32 AM 36.5358 -87.5703 119° Southeast 495 570 37,000  Level Memphis Center
Mon 04:52:32 AM 36.4744 -87.4356 120° Southeast 495 570 37,000  Level Memphis Center
Mon 04:53:32 AM 36.3836 -87.3022 130° Southeast 500 575 37,000 -100 Level Memphis Center
Mon 04:54:32 AM 36.2808 -87.1903 139° Southeast 493 567 36,800 -1,250 Descending Memphis Center
Mon 04:55:32 AM 36.1778 -87.0786 139° Southeast 493 567 34,500 -1,800 Descending Memphis Center
Mon 04:56:32 AM 36.0725 -86.9622 138° Southeast 498 573 33,200 -750 Descending Memphis Center
Mon 04:57:32 AM 35.9714 -86.8508 138° Southeast 498 573 33,000 -100 Descending Memphis Center
Mon 04:58:32 AM 35.8703 -86.7400 138° Southeast 498 573 33,000  Level Memphis Center
Mon 04:59:32 AM 35.7711 -86.6317 138° Southeast 488 562 33,000  Level Memphis Center
Mon 05:01:55 AM 35.5169 -86.3581 139° Southeast 498 573 33,000  Level Atlanta Center
Mon 05:02:55 AM 35.4269 -86.2611 139° Southeast 493 567 33,000  Level Atlanta Center
Mon 05:03:55 AM 35.3247 -86.1464 138° Southeast 488 562 33,000  Level Atlanta Center
Mon 05:04:55 AM 35.2222 -86.0422 140° Southeast 488 562 33,000  Level Atlanta Center
Mon 05:05:55 AM 35.1217 -85.9331 138° Southeast 488 562 33,000 -50 Level Atlanta Center
Mon 05:06:55 AM 35.0189 -85.8294 140° Southeast 488 562 32,900 -1,400 Descending Atlanta Center
Mon 05:07:55 AM 34.9203 -85.7183 137° Southeast 488 562 30,200 -2,650 Descending Atlanta Center
Mon 05:08:55 AM 34.8194 -85.6150 140° Southeast 482 555 27,600 -2,550 Descending Atlanta Center
Mon 05:09:55 AM 34.7206 -85.5094 139° Southeast 477 549 25,100 -2,500 Descending Atlanta Center
Mon 05:10:55 AM 34.6236 -85.4119 140° Southeast 472 543 22,600 -2,500 Descending Atlanta Center
Mon 05:11:55 AM 34.5328 -85.3122 138° Southeast 462 532 20,100 -2,400 Descending Atlanta Center
Mon 05:12:55 AM 34.4419 -85.2200 140° Southeast 443 510 17,800 -2,400 Descending Atlanta Center
Mon 05:13:55 AM 34.3447 -85.1181 139° Southeast 432 497 15,300 -1,400 Descending Atlanta Center
Mon 05:14:55 AM 34.2681 -85.0417 141° Southeast 415 478 15,000 -150 Descending Atlanta Center
Mon 05:15:55 AM 34.1853 -84.9528 138° Southeast 398 458 15,000 -100 Level Atlanta Center
Mon 05:16:55 AM 34.1044 -84.8717 140° Southeast 393 452 14,800 -650 Descending Atlanta Center
Mon 05:17:55 AM 34.0339 -84.8008 140° Southeast 358 412 13,700 -1,200 Descending Atlanta Center
Mon 05:18:55 AM 33.9656 -84.7300 139° Southeast 331 381 12,400 -1,150 Descending Atlanta Center
Mon 05:19:55 AM 33.9056 -84.6544 134° Southeast 321 369 11,400 -750 Descending Atlanta Center
Mon 05:20:55 AM 33.8661 -84.5592 116° Southeast 313 360 10,900 -1,161 Descending Atlanta Center
Mon 05:21:28 AM 33.8500 -84.5000 108° East 307 353 9,600 -1,935 Descending Atlanta TRACON
Mon 05:22:28 AM 33.8000 -84.4000 121° Southeast 312 359 7,900 -1,000 Descending Atlanta TRACON
Mon 05:23:28 AM 33.7667 -84.3333 121° Southeast 257 296 7,600 -850 Descending Atlanta TRACON
Mon 05:24:28 AM 33.7333 -84.2500 116° Southeast 235 270 6,200 -1,400 Descending Atlanta TRACON
Mon 05:25:28 AM 33.6833 -84.2333 164° South 219 252 4,800 -1,350 Descending Atlanta TRACON
Mon 05:26:28 AM 33.6500 -84.2500 203° Southwest 197 227 3,500 -1,000 Descending Atlanta TRACON
Mon 05:27:28 AM 33.6500 -84.3000 270° West 160 184 2,800 -850 Descending Atlanta TRACON
Mon 05:28:28 AM 33.6500 -84.3667 270° West 159 183 1,800 -1,000 Descending Atlanta TRACON
Mon 05:30:00 AM 33.6333 -84.4167 260° West  Level FlightAware Approximate

Login

Don't have an account? Register now (free) for customized features, flight alerts, and more!